createdAt,value
2018-04-30T00:01:48.759Z,54.50
2018-04-30T00:04:16.210Z,54.40
2018-04-30T00:06:43.685Z,55.00
2018-04-30T00:09:11.161Z,55.20
2018-04-30T00:11:38.617Z,55.40
2018-04-30T00:14:06.083Z,56.90
2018-04-30T00:16:34.301Z,57.50
2018-04-30T00:19:01.826Z,57.40
2018-04-30T00:21:30.070Z,57.30
2018-04-30T00:23:57.525Z,57.30
2018-04-30T00:26:25.013Z,57.40
2018-04-30T00:28:53.254Z,55.60
2018-04-30T00:31:20.697Z,55.50
2018-04-30T00:33:48.311Z,55.10
2018-04-30T00:36:15.764Z,55.00
2018-04-30T00:38:43.982Z,54.60
2018-04-30T00:41:11.426Z,54.60
2018-04-30T00:43:38.879Z,54.40
2018-04-30T00:46:06.324Z,53.90
2018-04-30T00:48:33.782Z,53.70
2018-04-30T00:51:01.243Z,54.00
2018-04-30T00:53:28.711Z,54.60
2018-04-30T00:55:56.167Z,54.90
2018-04-30T00:58:23.615Z,55.20
2018-04-30T01:00:51.078Z,55.30
2018-04-30T01:03:18.534Z,55.60
2018-04-30T01:05:45.994Z,55.50
2018-04-30T01:08:13.462Z,56.60
2018-04-30T01:10:40.914Z,56.50
2018-04-30T01:13:08.370Z,56.20
2018-04-30T01:15:35.818Z,56.70
2018-04-30T01:18:03.267Z,58.20
2018-04-30T01:20:30.714Z,57.30
2018-04-30T01:22:58.169Z,59.70
2018-04-30T01:25:25.629Z,58.40
2018-04-30T01:27:53.083Z,59.00
2018-04-30T01:30:21.302Z,58.80
2018-04-30T01:32:48.767Z,58.80
2018-04-30T01:35:16.239Z,59.00
2018-04-30T01:37:43.690Z,59.40
2018-04-30T01:40:11.133Z,59.00
2018-04-30T01:42:38.593Z,59.20
2018-04-30T01:45:06.044Z,60.00
2018-04-30T01:47:33.504Z,60.10
2018-04-30T01:50:00.945Z,60.10
2018-04-30T01:52:28.393Z,60.00
2018-04-30T01:54:55.849Z,60.30
2018-04-30T01:57:23.290Z,61.20
2018-04-30T01:59:50.737Z,61.60
2018-04-30T02:02:18.961Z,63.20
2018-04-30T02:04:46.406Z,62.40
2018-04-30T02:07:13.864Z,61.90
2018-04-30T02:09:41.306Z,62.00
2018-04-30T02:12:08.751Z,61.00
2018-04-30T02:14:36.205Z,61.70
2018-04-30T02:17:03.656Z,61.50
2018-04-30T02:19:31.877Z,61.50
2018-04-30T02:21:59.322Z,61.50
2018-04-30T02:24:26.778Z,62.70
2018-04-30T02:26:54.237Z,62.60
2018-04-30T02:29:21.692Z,61.70
2018-04-30T02:31:49.144Z,61.20
2018-04-30T02:34:16.590Z,60.50
2018-04-30T02:36:44.058Z,60.80
2018-04-30T02:39:11.554Z,61.60
2018-04-30T02:41:39.026Z,60.50
2018-04-30T02:44:07.295Z,59.90
2018-04-30T02:46:34.746Z,59.80
2018-04-30T02:49:02.204Z,59.70
2018-04-30T02:51:29.665Z,59.60
2018-04-30T02:53:57.111Z,59.50
2018-04-30T02:56:24.570Z,59.80
2018-04-30T02:58:52.083Z,59.60
2018-04-30T03:01:19.532Z,60.70
2018-04-30T03:03:46.971Z,62.00
2018-04-30T03:06:15.198Z,60.30
2018-04-30T03:08:42.661Z,60.30
2018-04-30T03:11:10.126Z,60.10
2018-04-30T03:13:37.583Z,61.60
2018-04-30T03:16:05.034Z,62.10
2018-04-30T03:18:32.482Z,62.10
2018-04-30T03:20:59.957Z,60.30
2018-04-30T03:23:27.401Z,59.70
2018-04-30T03:25:55.251Z,60.00
2018-04-30T03:28:22.709Z,60.00
2018-04-30T03:30:50.157Z,59.70
2018-04-30T03:33:17.640Z,59.50
2018-04-30T03:35:45.088Z,59.90
2018-04-30T03:38:12.550Z,60.80
2018-04-30T03:40:40.000Z,61.40
2018-04-30T03:43:07.451Z,62.40
2018-04-30T03:45:34.910Z,64.10
2018-04-30T03:48:02.357Z,65.70
2018-04-30T03:50:29.818Z,68.60
2018-04-30T03:52:57.264Z,69.40
2018-04-30T03:55:24.713Z,70.50
2018-04-30T03:57:52.213Z,71.20
2018-04-30T04:00:31.505Z,73.20
2018-04-30T04:03:11.050Z,75.10
2018-04-30T04:05:50.489Z,76.60
2018-04-30T04:08:17.949Z,77.30
2018-04-30T04:10:45.409Z,77.60
2018-04-30T04:13:12.853Z,77.70
2018-04-30T04:15:40.318Z,76.40
2018-04-30T04:18:07.778Z,76.00
2018-04-30T04:20:35.235Z,75.10
2018-04-30T04:23:02.681Z,73.40
2018-04-30T04:25:30.133Z,73.00
2018-04-30T04:27:57.586Z,73.00
2018-04-30T04:30:25.045Z,72.90
2018-04-30T04:32:52.493Z,72.50
2018-04-30T04:35:20.725Z,71.90
2018-04-30T04:37:48.170Z,71.90
2018-04-30T04:40:15.633Z,71.20
2018-04-30T04:42:43.154Z,70.20
2018-04-30T04:45:10.709Z,69.60
2018-04-30T04:47:38.207Z,69.50
2018-04-30T04:50:05.644Z,68.00
2018-04-30T04:52:33.149Z,67.60
2018-04-30T04:55:01.396Z,66.50
2018-04-30T04:57:28.850Z,66.50
2018-04-30T04:59:56.349Z,66.20
2018-04-30T05:02:24.688Z,66.90
2018-04-30T05:04:52.902Z,67.10
2018-04-30T05:07:21.125Z,67.30
2018-04-30T05:09:48.569Z,67.30
2018-04-30T05:12:16.027Z,67.30
2018-04-30T05:14:43.519Z,67.70
2018-04-30T05:17:11.004Z,67.90
2018-04-30T05:19:38.518Z,68.40
2018-04-30T05:22:05.948Z,68.70
2018-04-30T05:24:33.526Z,68.80
2018-04-30T05:27:00.981Z,69.20
2018-04-30T05:29:28.433Z,69.40
2018-04-30T05:31:55.984Z,70.10
2018-04-30T05:34:23.500Z,70.90
2018-04-30T05:36:51.721Z,72.20
2018-04-30T05:39:19.287Z,72.10
2018-04-30T05:41:46.766Z,72.00
2018-04-30T05:44:14.231Z,72.20
2018-04-30T05:46:41.674Z,72.20
2018-04-30T05:49:09.138Z,73.00
2018-04-30T05:51:36.621Z,72.80
2018-04-30T05:54:04.156Z,73.10
2018-04-30T05:56:31.566Z,73.50
2018-04-30T05:58:59.086Z,73.90
2018-04-30T06:01:26.522Z,74.40
2018-04-30T06:03:54.035Z,74.30
2018-04-30T06:06:21.525Z,75.10
2018-04-30T06:08:48.985Z,75.70
2018-04-30T06:11:16.439Z,76.00
2018-04-30T06:13:43.961Z,75.50
2018-04-30T06:16:12.193Z,76.40
2018-04-30T06:18:39.647Z,76.30
2018-04-30T06:21:07.130Z,77.50
2018-04-30T06:23:35.429Z,77.80
2018-04-30T06:26:02.894Z,79.80
2018-04-30T06:28:30.355Z,79.40
2018-04-30T06:30:57.852Z,79.80
2018-04-30T06:33:25.426Z,80.20
2018-04-30T06:35:53.024Z,81.20
2018-04-30T06:38:20.386Z,81.70
2018-04-30T06:40:47.856Z,82.40
2018-04-30T06:43:15.293Z,83.90
2018-04-30T06:45:42.748Z,83.50
2018-04-30T06:48:10.232Z,86.10
2018-04-30T06:50:37.671Z,84.60
2018-04-30T06:53:05.122Z,84.20
2018-04-30T06:55:32.573Z,84.20
2018-04-30T06:58:00.814Z,87.50
2018-04-30T07:00:28.284Z,87.50
2018-04-30T07:02:55.733Z,86.70
2018-04-30T07:05:23.202Z,85.30
2018-04-30T07:07:50.653Z,86.10
2018-04-30T07:10:18.107Z,85.60
2018-04-30T07:12:45.564Z,84.60
2018-04-30T07:15:13.013Z,86.10
2018-04-30T07:17:40.492Z,85.30
2018-04-30T07:20:08.763Z,84.20
2018-04-30T07:22:36.162Z,84.20
2018-04-30T07:25:03.618Z,84.10
2018-04-30T07:27:31.136Z,86.00
2018-04-30T07:29:58.515Z,85.90
2018-04-30T07:32:25.957Z,83.00
2018-04-30T07:34:54.172Z,84.40
2018-04-30T07:37:21.628Z,84.40
2018-04-30T07:39:49.070Z,81.20
2018-04-30T07:42:16.517Z,80.00
2018-04-30T07:44:43.962Z,80.70
2018-04-30T07:47:12.180Z,78.30
2018-04-30T07:49:40.387Z,79.30
2018-04-30T07:52:07.836Z,78.50
2018-04-30T07:54:35.329Z,78.20
2018-04-30T07:57:02.741Z,77.90
2018-04-30T07:59:30.978Z,76.50
2018-04-30T08:01:58.415Z,76.50
2018-04-30T08:04:26.636Z,75.70
2018-04-30T08:06:54.086Z,75.60
2018-04-30T08:09:21.538Z,74.90
2018-04-30T08:11:48.990Z,74.30
2018-04-30T08:14:16.443Z,73.20
2018-04-30T08:16:43.901Z,73.10
2018-04-30T08:19:11.382Z,73.40
2018-04-30T08:21:38.842Z,72.60
2018-04-30T08:24:06.282Z,72.20
2018-04-30T08:26:33.752Z,70.70
2018-04-30T08:29:01.204Z,70.20
2018-04-30T08:31:28.968Z,69.10
2018-04-30T08:33:58.389Z,71.60
2018-04-30T08:36:26.487Z,72.50
2018-04-30T08:38:54.595Z,71.80
2018-04-30T08:41:22.613Z,71.50
2018-04-30T08:43:50.988Z,73.40
2018-04-30T08:46:19.402Z,71.90
2018-04-30T08:48:47.734Z,72.50
2018-04-30T08:51:16.045Z,70.60
2018-04-30T08:53:44.364Z,70.80
2018-04-30T08:56:13.556Z,72.50
2018-04-30T08:58:42.663Z,70.60
2018-04-30T09:01:11.085Z,70.60
2018-04-30T09:03:39.401Z,70.60
2018-04-30T09:06:07.729Z,70.80
2018-04-30T09:08:36.140Z,72.00
2018-04-30T09:11:04.455Z,68.60
2018-04-30T09:13:32.867Z,68.80
2018-04-30T09:16:01.192Z,67.80
2018-04-30T09:18:29.831Z,68.40
2018-04-30T09:20:57.311Z,68.40
2018-04-30T09:23:25.513Z,68.60
2018-04-30T09:25:53.062Z,68.60
2018-04-30T09:28:20.522Z,69.00
2018-04-30T09:30:47.979Z,72.00
2018-04-30T09:33:15.430Z,72.20
2018-04-30T09:35:42.892Z,67.50
2018-04-30T09:38:10.328Z,70.00
2018-04-30T09:40:38.569Z,67.80
2018-04-30T09:43:06.013Z,67.80
2018-04-30T09:45:33.469Z,67.60
2018-04-30T09:48:00.905Z,67.40
2018-04-30T09:50:28.365Z,68.00
2018-04-30T09:52:55.811Z,68.10
2018-04-30T09:55:23.278Z,66.00
2018-04-30T09:57:50.770Z,65.30
2018-04-30T10:00:18.186Z,68.40
2018-04-30T10:02:45.621Z,66.60
2018-04-30T10:05:13.086Z,65.20
2018-04-30T10:07:40.544Z,66.80
2018-04-30T10:10:07.991Z,64.40
2018-04-30T10:12:36.228Z,63.70
2018-04-30T10:15:03.682Z,63.70
2018-04-30T10:17:31.134Z,62.20
2018-04-30T10:19:58.584Z,62.60
2018-04-30T10:22:26.036Z,63.90
2018-04-30T10:24:53.481Z,65.00
2018-04-30T10:27:20.934Z,65.70
2018-04-30T10:29:48.389Z,65.20
2018-04-30T10:32:15.834Z,66.90
2018-04-30T10:34:43.288Z,66.10
2018-04-30T10:37:10.743Z,67.60
2018-04-30T10:39:38.186Z,65.70
2018-04-30T10:42:06.410Z,64.60
2018-04-30T10:44:33.851Z,64.60
2018-04-30T10:47:01.378Z,64.90
2018-04-30T10:49:28.757Z,66.00
2018-04-30T10:51:56.213Z,64.50
2018-04-30T10:54:23.661Z,63.50
2018-04-30T10:56:51.113Z,65.40
2018-04-30T10:59:18.563Z,64.90
2018-04-30T11:01:46.019Z,63.40
2018-04-30T11:04:14.239Z,62.10
2018-04-30T11:06:41.693Z,62.10
2018-04-30T11:09:09.151Z,63.20
2018-04-30T11:11:36.605Z,60.30
2018-04-30T11:14:04.179Z,63.40
2018-04-30T11:16:31.630Z,63.20
2018-04-30T11:18:59.073Z,62.00
2018-04-30T11:21:26.533Z,62.70
2018-04-30T11:23:53.981Z,58.20
2018-04-30T11:26:21.451Z,58.30
2018-04-30T11:28:48.959Z,58.50
2018-04-30T11:31:16.355Z,56.90
2018-04-30T11:33:43.822Z,59.60
2018-04-30T11:36:11.269Z,58.90
2018-04-30T11:38:38.722Z,59.30
2018-04-30T11:41:06.173Z,61.10
2018-04-30T11:43:33.626Z,62.40
2018-04-30T11:46:01.089Z,61.50
2018-04-30T11:48:28.542Z,62.40
2018-04-30T11:50:56.006Z,60.70
2018-04-30T11:53:23.461Z,59.30
2018-04-30T11:55:50.919Z,59.80
2018-04-30T11:58:18.378Z,60.10
2018-04-30T12:00:45.830Z,59.50
2018-04-30T12:03:13.290Z,57.60
2018-04-30T12:05:40.750Z,58.70
2018-04-30T12:08:08.197Z,59.20
2018-04-30T12:10:35.656Z,59.80
2018-04-30T12:13:03.097Z,59.10
2018-04-30T12:15:30.565Z,59.70
2018-04-30T12:17:58.015Z,59.70
2018-04-30T12:20:25.469Z,62.00
2018-04-30T12:22:52.921Z,59.80
2018-04-30T12:25:20.390Z,61.00
2018-04-30T12:27:47.954Z,57.60
2018-04-30T12:30:15.401Z,58.50
2018-04-30T12:32:42.872Z,58.40
2018-04-30T12:35:10.323Z,55.80
2018-04-30T12:37:37.770Z,56.30
2018-04-30T12:40:05.222Z,57.40
2018-04-30T12:42:32.662Z,57.20
2018-04-30T12:45:00.882Z,57.20
2018-04-30T12:47:28.365Z,57.10
2018-04-30T12:49:56.590Z,58.10
2018-04-30T12:52:24.049Z,58.10
2018-04-30T12:54:51.516Z,58.30
2018-04-30T12:57:18.977Z,58.70
2018-04-30T12:59:46.430Z,59.50
2018-04-30T13:02:13.877Z,59.30
2018-04-30T13:04:41.325Z,59.30
2018-04-30T13:07:08.775Z,59.20
2018-04-30T13:09:36.989Z,58.40
2018-04-30T13:12:04.435Z,58.30
2018-04-30T13:14:31.902Z,58.10
2018-04-30T13:16:59.350Z,57.30
2018-04-30T13:19:26.793Z,57.60
2018-04-30T13:21:54.256Z,57.10
2018-04-30T13:24:21.710Z,56.30
2018-04-30T13:26:49.166Z,57.30
2018-04-30T13:29:16.607Z,56.70
2018-04-30T13:31:44.833Z,55.10
2018-04-30T13:34:12.284Z,55.10
2018-04-30T13:36:39.736Z,57.20
2018-04-30T13:39:07.181Z,55.30
2018-04-30T13:41:34.642Z,55.30
2018-04-30T13:44:02.096Z,55.80
2018-04-30T13:46:29.536Z,54.20
2018-04-30T13:48:56.985Z,54.80
2018-04-30T13:51:24.445Z,54.20
2018-04-30T13:53:51.889Z,55.70
2018-04-30T13:56:20.110Z,55.90
2018-04-30T13:58:47.556Z,55.80
2018-04-30T14:01:15.013Z,57.40
2018-04-30T14:03:42.494Z,56.30
2018-04-30T14:06:09.958Z,56.60
2018-04-30T14:08:37.417Z,56.20
2018-04-30T14:11:04.857Z,57.30
2018-04-30T14:13:32.307Z,56.10
2018-04-30T14:15:59.814Z,55.60
2018-04-30T14:18:27.224Z,56.40
2018-04-30T14:20:54.673Z,56.30
2018-04-30T14:23:22.135Z,56.80
2018-04-30T14:25:49.569Z,58.30
2018-04-30T14:28:17.041Z,57.60
2018-04-30T14:30:44.485Z,55.00
2018-04-30T14:33:11.949Z,57.90
2018-04-30T14:35:39.413Z,59.30
2018-04-30T14:38:06.857Z,59.50
2018-04-30T14:40:34.320Z,58.00
2018-04-30T14:43:01.787Z,57.00
2018-04-30T14:45:29.237Z,55.20
2018-04-30T14:47:56.697Z,56.10
2018-04-30T14:50:24.149Z,56.20
2018-04-30T14:52:51.609Z,57.00
2018-04-30T14:55:19.056Z,56.60
2018-04-30T14:57:46.505Z,55.10
2018-04-30T15:00:13.954Z,55.70
2018-04-30T15:02:41.413Z,55.20
2018-04-30T15:05:08.866Z,55.00
2018-04-30T15:07:36.342Z,52.40
2018-04-30T15:10:03.785Z,53.20
2018-04-30T15:12:31.229Z,53.70
2018-04-30T15:14:59.439Z,54.80
2018-04-30T15:17:26.895Z,54.80
2018-04-30T15:19:54.481Z,53.60
2018-04-30T15:22:21.922Z,54.30
2018-04-30T15:24:49.374Z,55.20
2018-04-30T15:27:16.838Z,55.20
2018-04-30T15:29:44.279Z,55.60
2018-04-30T15:32:11.731Z,53.90
2018-04-30T15:34:39.187Z,54.40
2018-04-30T15:37:06.633Z,54.00
2018-04-30T15:39:34.077Z,53.60
2018-04-30T15:42:02.307Z,55.00
2018-04-30T15:44:29.738Z,55.00
2018-04-30T15:46:57.198Z,54.30
2018-04-30T15:49:24.645Z,53.60
2018-04-30T15:51:52.090Z,54.10
2018-04-30T15:54:19.545Z,59.40
2018-04-30T15:56:47.005Z,58.20
2018-04-30T15:59:14.470Z,61.30
2018-04-30T16:01:41.934Z,55.90
2018-04-30T16:04:09.375Z,54.70
2018-04-30T16:06:36.821Z,54.60
2018-04-30T16:09:05.082Z,55.50
2018-04-30T16:11:33.302Z,53.00
2018-04-30T16:14:00.818Z,52.90
2018-04-30T16:16:28.198Z,53.20
2018-04-30T16:18:55.654Z,52.90
2018-04-30T16:21:23.090Z,53.10
2018-04-30T16:23:50.541Z,54.70
2018-04-30T16:26:18.746Z,56.30
2018-04-30T16:28:46.203Z,56.30
2018-04-30T16:31:13.660Z,56.50
2018-04-30T16:33:41.109Z,56.20
2018-04-30T16:36:08.563Z,55.90
2018-04-30T16:38:36.014Z,56.60
2018-04-30T16:41:04.233Z,56.60
2018-04-30T16:43:31.685Z,56.60
2018-04-30T16:45:59.746Z,57.50
2018-04-30T16:48:27.206Z,58.30
2018-04-30T16:50:54.653Z,58.30
2018-04-30T16:53:22.097Z,59.00
2018-04-30T16:55:49.550Z,59.80
2018-04-30T16:58:16.994Z,60.80
2018-04-30T17:00:45.218Z,60.50
2018-04-30T17:03:12.657Z,60.50
2018-04-30T17:05:40.109Z,60.80
2018-04-30T17:08:07.574Z,62.10
2018-04-30T17:10:35.102Z,61.40
2018-04-30T17:13:02.475Z,62.00
2018-04-30T17:15:29.937Z,62.80
2018-04-30T17:17:57.401Z,62.30
2018-04-30T17:20:24.858Z,62.80
2018-04-30T17:22:52.299Z,63.00
2018-04-30T17:25:19.762Z,64.00
2018-04-30T17:27:47.213Z,64.30
2018-04-30T17:30:14.678Z,65.20
2018-04-30T17:32:42.121Z,64.70
2018-04-30T17:35:09.561Z,65.10
2018-04-30T17:37:37.789Z,66.20
2018-04-30T17:40:05.242Z,66.10
2018-04-30T17:42:32.701Z,65.80
2018-04-30T17:45:00.163Z,65.80
2018-04-30T17:47:27.618Z,66.50
2018-04-30T17:49:55.101Z,67.30
2018-04-30T17:52:22.543Z,68.10
2018-04-30T17:54:50.006Z,68.70
2018-04-30T17:57:17.473Z,68.80
2018-04-30T17:59:44.918Z,69.30
2018-04-30T18:02:12.363Z,69.40
2018-04-30T18:04:39.847Z,68.90
2018-04-30T18:07:07.341Z,68.50
2018-04-30T18:09:34.754Z,70.00
2018-04-30T18:12:02.199Z,70.00
2018-04-30T18:14:29.658Z,71.50
2018-04-30T18:16:57.122Z,72.40
2018-04-30T18:19:24.573Z,70.80
2018-04-30T18:21:52.035Z,70.30
2018-04-30T18:24:19.491Z,70.70
2018-04-30T18:26:46.982Z,71.70
2018-04-30T18:29:14.421Z,73.20
2018-04-30T18:31:41.879Z,74.80
2018-04-30T18:34:09.322Z,76.90
2018-04-30T18:36:36.768Z,80.20
2018-04-30T18:39:04.218Z,81.80
2018-04-30T18:41:31.661Z,80.90
2018-04-30T18:43:59.114Z,85.30
2018-04-30T18:46:26.568Z,89.60
2018-04-30T18:48:54.014Z,85.30
2018-04-30T18:51:21.467Z,82.00
2018-04-30T18:53:48.900Z,83.20
2018-04-30T18:56:17.117Z,89.50
2018-04-30T18:58:44.582Z,89.40
2018-04-30T19:01:12.040Z,88.40
2018-04-30T19:03:39.518Z,90.00
2018-04-30T19:06:06.962Z,91.40
2018-04-30T19:08:34.417Z,90.30
2018-04-30T19:11:01.874Z,90.10
2018-04-30T19:13:29.321Z,90.50
2018-04-30T19:15:56.784Z,89.40
2018-04-30T19:18:24.230Z,90.40
2018-04-30T19:20:51.674Z,90.70
2018-04-30T19:23:19.119Z,92.10
2018-04-30T19:25:46.566Z,91.00
2018-04-30T19:28:14.014Z,90.70
2018-04-30T19:30:42.236Z,90.60
2018-04-30T19:33:09.677Z,90.50
2018-04-30T19:35:37.118Z,91.30
2018-04-30T19:38:04.577Z,91.10
2018-04-30T19:40:32.025Z,90.20
2018-04-30T19:43:00.245Z,90.60
2018-04-30T19:45:27.747Z,90.70
2018-04-30T19:47:55.137Z,92.90
2018-04-30T19:50:22.625Z,93.00
2018-04-30T19:52:50.168Z,92.90
2018-04-30T19:55:17.541Z,93.00
2018-04-30T19:57:45.038Z,93.70
2018-04-30T20:00:13.247Z,92.50
2018-04-30T20:02:40.709Z,92.50
2018-04-30T20:05:08.151Z,92.60
2018-04-30T20:07:35.603Z,92.90
2018-04-30T20:10:03.092Z,92.50
2018-04-30T20:12:31.305Z,92.10
2018-04-30T20:14:58.768Z,92.10
2018-04-30T20:17:26.211Z,91.60
2018-04-30T20:19:53.730Z,92.20
2018-04-30T20:22:21.186Z,89.90
2018-04-30T20:24:48.654Z,90.40
2018-04-30T20:27:16.113Z,90.20
2018-04-30T20:29:43.561Z,90.40
2018-04-30T20:32:12.033Z,92.30
2018-04-30T20:34:39.489Z,91.70
2018-04-30T20:37:06.943Z,91.00
2018-04-30T20:39:34.398Z,91.60
2018-04-30T20:42:01.848Z,91.90
2018-04-30T20:44:29.381Z,93.10
2018-04-30T20:46:56.764Z,93.50
2018-04-30T20:49:24.954Z,93.50
2018-04-30T20:51:52.406Z,93.50
2018-04-30T20:54:19.850Z,93.80
2018-04-30T20:56:47.310Z,93.20
2018-04-30T20:59:14.754Z,92.60
2018-04-30T21:01:42.219Z,94.50
2018-04-30T21:04:09.679Z,94.40
2018-04-30T21:06:37.282Z,94.20
2018-04-30T21:09:11.305Z,94.20
2018-04-30T21:11:38.746Z,94.50
2018-04-30T21:14:06.185Z,94.30
2018-04-30T21:16:33.656Z,94.90
2018-04-30T21:19:01.098Z,95.20
2018-04-30T21:21:28.554Z,95.00
2018-04-30T21:23:56.006Z,94.90
2018-04-30T21:26:23.457Z,94.10
2018-04-30T21:28:50.906Z,93.30
2018-04-30T21:31:18.346Z,94.00
2018-04-30T21:33:45.797Z,94.40
2018-04-30T21:36:13.261Z,94.70
2018-04-30T21:38:40.720Z,94.40
2018-04-30T21:41:08.166Z,93.40
2018-04-30T21:43:36.375Z,92.50
2018-04-30T21:46:03.839Z,92.50
2018-04-30T21:48:31.277Z,91.30
2018-04-30T21:50:58.736Z,90.40
2018-04-30T21:53:26.188Z,89.90
2018-04-30T21:55:53.634Z,88.60
2018-04-30T21:58:21.081Z,87.10
2018-04-30T22:00:49.289Z,86.10
2018-04-30T22:03:16.733Z,86.00
2018-04-30T22:05:44.177Z,86.10
2018-04-30T22:08:11.630Z,87.20
2018-04-30T22:10:39.074Z,89.00
2018-04-30T22:13:07.292Z,91.40
2018-04-30T22:15:34.745Z,91.40
2018-04-30T22:18:02.191Z,91.30
2018-04-30T22:20:29.635Z,91.00
2018-04-30T22:22:57.076Z,92.40
2018-04-30T22:25:25.286Z,93.00
2018-04-30T22:27:52.727Z,92.90
2018-04-30T22:30:20.179Z,93.10
2018-04-30T22:32:47.623Z,92.80
2018-04-30T22:35:15.835Z,93.80
2018-04-30T22:37:43.281Z,93.80
2018-04-30T22:40:10.743Z,94.00
2018-04-30T22:42:38.195Z,94.00
2018-04-30T22:45:05.642Z,94.40
2018-04-30T22:47:33.097Z,94.30
2018-04-30T22:50:00.546Z,94.20
2018-04-30T22:52:27.990Z,93.50
2018-04-30T22:54:56.214Z,94.20
2018-04-30T22:57:23.657Z,94.20
2018-04-30T22:59:51.101Z,94.20
2018-04-30T23:02:18.549Z,94.50
2018-04-30T23:04:46.025Z,94.60
2018-04-30T23:07:13.486Z,94.50
2018-04-30T23:09:40.929Z,94.10
2018-04-30T23:12:08.395Z,94.40
2018-04-30T23:14:35.850Z,94.50
2018-04-30T23:17:03.310Z,94.50
2018-04-30T23:19:30.766Z,94.40
2018-04-30T23:21:58.222Z,94.90
2018-04-30T23:24:25.670Z,94.70
2018-04-30T23:26:53.118Z,94.20
2018-04-30T23:29:20.577Z,93.90
2018-04-30T23:31:48.821Z,93.30
2018-04-30T23:34:16.268Z,93.30
2018-04-30T23:36:43.718Z,93.90
2018-04-30T23:39:11.184Z,93.90
2018-04-30T23:41:38.692Z,94.10
2018-04-30T23:44:06.156Z,93.30
2018-04-30T23:46:33.663Z,93.80
2018-04-30T23:49:01.165Z,94.20
2018-04-30T23:51:28.671Z,94.30
2018-04-30T23:53:56.135Z,94.00
2018-04-30T23:56:23.617Z,94.40
2018-04-30T23:58:51.836Z,94.40
